createdAt,value
2022-08-08T00:00:56.638Z,99.90
2022-08-08T00:06:10.078Z,99.90
2022-08-08T00:11:46.703Z,99.90
2022-08-08T00:17:22.567Z,99.90
2022-08-08T00:22:31.043Z,99.90
2022-08-08T00:27:37.864Z,99.90
2022-08-08T00:32:57.180Z,99.90
2022-08-08T00:38:16.861Z,99.90
2022-08-08T00:44:00.891Z,99.90
2022-08-08T00:49:33.204Z,99.90
2022-08-08T00:55:07.128Z,99.90
2022-08-08T01:00:13.581Z,99.90
2022-08-08T01:05:59.618Z,99.90
2022-08-08T01:11:31.965Z,99.90
2022-08-08T01:16:59.271Z,99.90
2022-08-08T01:22:23.234Z,99.90
2022-08-08T01:28:03.636Z,99.90
2022-08-08T01:33:42.971Z,99.90
2022-08-08T01:39:24.302Z,99.90
2022-08-08T01:44:54.939Z,99.90
2022-08-08T01:50:38.155Z,99.90
2022-08-08T01:56:31.634Z,99.90
2022-08-08T02:02:00.293Z,99.90
2022-08-08T02:07:41.963Z,99.90
2022-08-08T02:13:05.855Z,99.90
2022-08-08T02:18:30.688Z,99.90
2022-08-08T02:23:42.558Z,99.90
2022-08-08T02:29:21.976Z,99.90
2022-08-08T02:35:10.817Z,99.90
2022-08-08T02:40:45.173Z,99.90
2022-08-08T02:46:12.000Z,99.90
2022-08-08T02:51:46.643Z,99.90
2022-08-08T02:57:44.604Z,99.90
2022-08-08T03:03:45.989Z,99.90
2022-08-08T03:09:05.868Z,99.90
2022-08-08T03:16:01.310Z,99.90
2022-08-08T03:20:05.318Z,99.90
2022-08-08T03:25:18.206Z,99.90
2022-08-08T03:30:25.187Z,99.90
2022-08-08T03:35:30.154Z,99.90
2022-08-08T03:40:37.725Z,99.90
2022-08-08T03:46:05.920Z,99.90
2022-08-08T03:51:07.260Z,99.90
2022-08-08T03:56:10.414Z,99.90
2022-08-08T04:02:31.501Z,99.90
2022-08-08T04:07:01.927Z,99.90
2022-08-08T04:12:11.783Z,99.90
2022-08-08T04:17:46.026Z,99.90
2022-08-08T04:22:46.216Z,99.90
2022-08-08T04:28:02.680Z,99.90
2022-08-08T04:33:17.623Z,99.90
2022-08-08T04:38:21.138Z,99.90
2022-08-08T04:43:31.901Z,99.90
2022-08-08T04:48:51.609Z,99.90
2022-08-08T04:54:38.341Z,99.90
2022-08-08T04:59:18.039Z,99.90
2022-08-08T05:04:27.806Z,99.90
2022-08-08T05:09:32.124Z,99.90
2022-08-08T05:14:39.301Z,99.90
2022-08-08T05:20:09.393Z,99.90
2022-08-08T05:25:11.039Z,99.90
2022-08-08T05:30:13.712Z,99.90
2022-08-08T05:35:23.755Z,99.90
2022-08-08T05:40:30.693Z,99.90
2022-08-08T05:45:41.654Z,99.90
2022-08-08T05:50:46.851Z,99.90
2022-08-08T05:56:09.597Z,99.90
2022-08-08T06:01:57.437Z,99.90
2022-08-08T06:06:56.668Z,99.90
2022-08-08T06:12:05.306Z,99.90
2022-08-08T06:17:11.148Z,99.90
2022-08-08T06:22:33.182Z,99.90
2022-08-08T06:28:00.741Z,99.90
2022-08-08T06:33:10.711Z,99.90
2022-08-08T06:38:19.928Z,99.90
2022-08-08T06:43:34.621Z,99.90
2022-08-08T06:48:42.455Z,99.90
2022-08-08T06:53:51.266Z,99.90
2022-08-08T06:59:12.173Z,99.90
2022-08-08T07:04:41.629Z,99.90
2022-08-08T07:10:08.327Z,99.90
2022-08-08T07:15:32.581Z,99.90
2022-08-08T07:20:50.570Z,99.90
2022-08-08T07:26:02.665Z,99.90
2022-08-08T07:31:06.624Z,99.40
2022-08-08T07:36:15.103Z,99.90
2022-08-08T07:41:24.726Z,99.90
2022-08-08T07:46:31.175Z,99.90
2022-08-08T07:51:53.413Z,99.80
2022-08-08T07:57:25.673Z,99.90
2022-08-08T08:02:41.851Z,99.90
2022-08-08T08:07:54.793Z,99.90
2022-08-08T08:13:25.111Z,96.50
2022-08-08T08:18:56.698Z,99.90
2022-08-08T08:24:03.446Z,99.90
2022-08-08T08:29:08.295Z,99.90
2022-08-08T08:34:19.195Z,99.90
2022-08-08T08:39:39.113Z,96.40
2022-08-08T08:44:49.758Z,98.30
2022-08-08T08:49:56.223Z,98.40
2022-08-08T08:55:00.575Z,98.50
2022-08-08T09:00:14.765Z,95.70
2022-08-08T09:05:49.041Z,96.40
2022-08-08T09:10:48.075Z,96.30
2022-08-08T09:15:52.313Z,97.10
2022-08-08T09:21:58.548Z,95.50
2022-08-08T09:26:51.466Z,96.50
2022-08-08T09:32:03.637Z,92.00
2022-08-08T09:37:58.164Z,96.10
2022-08-08T09:42:51.682Z,98.30
2022-08-08T09:48:10.097Z,95.30
2022-08-08T09:53:31.987Z,92.00
2022-08-08T09:58:53.803Z,91.50
2022-08-08T10:04:02.151Z,93.00
2022-08-08T10:09:08.621Z,96.90
2022-08-08T10:14:34.789Z,91.40
2022-08-08T10:19:46.293Z,98.60
2022-08-08T10:25:04.511Z,95.40
2022-08-08T10:30:07.897Z,95.10
2022-08-08T10:36:09.490Z,95.80
2022-08-08T10:40:50.451Z,98.00
2022-08-08T10:45:56.109Z,95.80
2022-08-08T10:51:12.409Z,98.40
2022-08-08T10:56:27.641Z,98.70
2022-08-08T11:01:37.752Z,98.40
2022-08-08T11:06:42.057Z,98.60
2022-08-08T11:12:06.159Z,92.70
2022-08-08T11:17:58.909Z,97.80
2022-08-08T11:22:42.179Z,95.00
2022-08-08T11:27:47.973Z,98.10
2022-08-08T11:32:55.489Z,90.90
2022-08-08T11:38:36.330Z,96.50
2022-08-08T11:43:23.735Z,94.30
2022-08-08T11:48:27.868Z,95.90
2022-08-08T11:53:30.863Z,96.80
2022-08-08T11:58:45.792Z,96.40
2022-08-08T12:03:59.450Z,92.60
2022-08-08T12:09:09.515Z,92.30
2022-08-08T12:14:24.163Z,93.50
2022-08-08T12:19:51.143Z,91.50
2022-08-08T12:24:56.594Z,94.30
2022-08-08T12:30:02.029Z,92.20
2022-08-08T12:35:17.696Z,93.20
2022-08-08T12:40:22.193Z,90.50
2022-08-08T12:45:59.556Z,96.40
2022-08-08T12:50:59.650Z,96.80
2022-08-08T12:56:19.449Z,88.90
2022-08-08T13:01:38.269Z,83.10
2022-08-08T13:06:51.780Z,84.00
2022-08-08T13:12:24.594Z,88.50
2022-08-08T13:18:09.991Z,87.40
2022-08-08T13:22:46.767Z,90.00
2022-08-08T13:27:54.595Z,89.40
2022-08-08T13:33:01.371Z,86.60
2022-08-08T13:38:08.158Z,84.30
2022-08-08T13:43:16.454Z,79.20
2022-08-08T13:48:25.393Z,84.80
2022-08-08T13:53:31.480Z,83.20
2022-08-08T13:58:37.084Z,80.90
2022-08-08T14:03:55.092Z,78.20
2022-08-08T14:08:58.828Z,75.30
2022-08-08T14:14:03.931Z,77.20
2022-08-08T14:19:10.588Z,87.40
2022-08-08T14:24:15.997Z,94.20
2022-08-08T14:29:27.950Z,85.30
2022-08-08T14:34:32.959Z,87.10
2022-08-08T14:39:53.953Z,78.50
2022-08-08T14:45:10.000Z,84.90
2022-08-08T14:50:37.629Z,87.70
2022-08-08T14:55:41.865Z,89.00
2022-08-08T15:00:49.837Z,90.10
2022-08-08T15:05:57.842Z,90.50
2022-08-08T15:11:01.609Z,90.90
2022-08-08T15:16:12.185Z,91.30
2022-08-08T15:21:17.182Z,91.50
2022-08-08T15:26:20.545Z,91.90
2022-08-08T15:31:56.167Z,92.30
2022-08-08T15:36:47.521Z,92.80
2022-08-08T15:41:51.236Z,93.20
2022-08-08T15:46:53.861Z,93.20
2022-08-08T15:51:56.768Z,94.00
2022-08-08T15:56:59.240Z,94.30
2022-08-08T16:02:03.119Z,94.60
2022-08-08T16:07:06.640Z,94.90
2022-08-08T16:13:21.036Z,95.20
2022-08-08T16:17:57.542Z,95.50
2022-08-08T16:22:54.412Z,95.80
2022-08-08T16:27:58.302Z,96.10
2022-08-08T16:33:01.583Z,96.40
2022-08-08T16:38:04.170Z,96.60
2022-08-08T16:43:06.756Z,86.70
2022-08-08T16:48:13.425Z,90.90
2022-08-08T16:55:02.073Z,89.80
2022-08-08T16:58:38.530Z,90.50
2022-08-08T17:04:00.242Z,90.70
2022-08-08T17:09:06.146Z,91.50
2022-08-08T17:14:17.811Z,92.00
2022-08-08T17:19:21.716Z,91.90
2022-08-08T17:24:28.091Z,92.50
2022-08-08T17:29:36.414Z,94.40
2022-08-08T17:35:00.112Z,94.80
2022-08-08T17:40:10.742Z,95.00
2022-08-08T17:45:23.647Z,98.70
2022-08-08T17:50:27.040Z,99.90
2022-08-08T17:56:06.888Z,98.50
2022-08-08T18:00:56.466Z,99.90
2022-08-08T18:06:00.067Z,99.90
2022-08-08T18:11:07.919Z,99.90
2022-08-08T18:16:11.424Z,99.90
2022-08-08T18:21:34.942Z,99.90
2022-08-08T18:26:36.832Z,99.90
2022-08-08T18:31:39.987Z,99.90
2022-08-08T18:36:44.605Z,99.90
2022-08-08T18:41:57.307Z,99.90
2022-08-08T18:47:05.385Z,99.90
2022-08-08T18:52:18.548Z,99.90
2022-08-08T18:57:25.101Z,99.90
2022-08-08T19:02:29.871Z,99.90
2022-08-08T19:07:33.562Z,99.90
2022-08-08T19:12:44.612Z,99.90
2022-08-08T19:18:33.554Z,99.90
2022-08-08T19:23:14.851Z,99.90
2022-08-08T19:28:20.118Z,99.90
2022-08-08T19:33:24.527Z,99.90
2022-08-08T19:38:27.128Z,99.90
2022-08-08T19:43:30.558Z,99.90
2022-08-08T19:48:33.605Z,99.90
2022-08-08T19:53:51.804Z,99.90
2022-08-08T19:58:56.157Z,99.90
2022-08-08T20:04:01.566Z,99.90
2022-08-08T20:09:09.134Z,99.90
2022-08-08T20:14:33.751Z,99.90
2022-08-08T20:19:42.410Z,99.90
2022-08-08T20:24:46.235Z,99.90
2022-08-08T20:29:55.716Z,99.90
2022-08-08T20:35:03.884Z,99.90
2022-08-08T20:40:08.196Z,99.90
2022-08-08T20:45:10.878Z,99.90
2022-08-08T20:50:14.916Z,99.90
2022-08-08T20:55:25.669Z,99.90
2022-08-08T21:00:28.524Z,99.90
2022-08-08T21:05:33.057Z,99.90
2022-08-08T21:10:52.319Z,99.90
2022-08-08T21:16:06.290Z,99.90
2022-08-08T21:21:39.768Z,99.90
2022-08-08T21:26:42.104Z,99.90
2022-08-08T21:31:53.436Z,99.90
2022-08-08T21:37:06.772Z,99.90
2022-08-08T21:42:18.847Z,99.90
2022-08-08T21:48:07.951Z,99.90
2022-08-08T21:54:31.088Z,99.90
2022-08-08T21:58:14.159Z,99.90
2022-08-08T22:03:17.803Z,99.90
2022-08-08T22:08:24.072Z,99.90
2022-08-08T22:13:26.871Z,99.90
2022-08-08T22:18:49.645Z,99.90
2022-08-08T22:23:55.794Z,99.90
2022-08-08T22:29:13.059Z,99.90
2022-08-08T22:34:23.527Z,99.90
2022-08-08T22:39:39.329Z,99.90
2022-08-08T22:44:48.464Z,99.90
2022-08-08T22:49:53.951Z,99.90
2022-08-08T22:55:04.951Z,99.90
2022-08-08T23:00:11.654Z,99.90
2022-08-08T23:05:15.921Z,99.90
2022-08-08T23:10:19.721Z,99.90
2022-08-08T23:16:41.266Z,99.90
2022-08-08T23:20:54.483Z,99.90
2022-08-08T23:25:57.777Z,99.90
2022-08-08T23:31:00.150Z,99.90
2022-08-08T23:36:07.991Z,99.90
2022-08-08T23:41:17.313Z,99.90
2022-08-08T23:49:02.737Z,99.90
2022-08-08T23:52:07.254Z,99.90
2022-08-08T23:57:25.318Z,99.90
